»·PEaware :: N1367R KMYF-KONT

N1367R :: KMYF-KONT

FLIGHT INFORMATION

Flight Status: Arrived
Operator: Privately registered:
United States
More flights under this callsign
Pilot: Alex C. (14758)
Aircraft: Unknown
(E50P)
More flights by this aircraft type
Origin: KMYF Montgomery
United States
Destination: KONT Ontario Intl
United States
More flights between these airports :: More routes between these airports
Route: +V186 TANNR HDF PETIS
File this flight plan on PilotEdge
Remarks: IFR KMYF / KONT 10,000 / / G
Altitude:
(Current/Filed)
10,000ft
Speed:
(Current/Filed)
350kts
Departed: 12-Dec-17 05:06 PM
Arrived: 12-Dec-17 05:47 PM
Distance/Time
Traveled:
78nm/0:41
Distance/Time
To Go:
Arrived

Flight Plot

Page will automatically refresh every two minutes.


Map Options




Map Legend


Flown Route
Filed Route
Departure Airport
Arrival Airport
Navaid (VOR, NDB)
Fix

Horizontal Profiles

Position Reports

Time Latitude Longitude Heading Altitude Ground
Speed
12-Dec-17 16:56 32.813443 -117.139498 359 433ft 0kts
12-Dec-17 16:58 32.813443 -117.139498 359 433ft 0kts
12-Dec-17 16:59 32.813443 -117.139498 359 433ft 0kts
12-Dec-17 16:59 32.813443 -117.139498 359 433ft 0kts
12-Dec-17 17:00 32.813443 -117.139498 359 433ft 0kts
12-Dec-17 17:02 32.813443 -117.139498 359 433ft 0kts
12-Dec-17 17:02 32.813443 -117.139498 359 433ft 0kts
12-Dec-17 17:03 32.813443 -117.139498 359 433ft 0kts
12-Dec-17 17:04 32.813443 -117.139498 359 433ft 0kts
12-Dec-17 17:05 32.813443 -117.139498 359 433ft 0kts
12-Dec-17 17:06 32.813477 -117.139496 7 433ft 3kts
12-Dec-17 17:07 32.812945 -117.137143 112 433ft 24kts
12-Dec-17 17:08 32.811179 -117.132646 62 433ft 11kts
12-Dec-17 17:09 32.812036 -117.131445 24 433ft 0kts
12-Dec-17 17:10 32.812099 -117.131410 25 433ft 3kts
12-Dec-17 17:11 32.813512 -117.132825 296 433ft 64kts
12-Dec-17 17:12 32.819312 -117.149619 289 1025ft 166kts
12-Dec-17 17:13 32.825280 -117.188329 281 2970ft 200kts
12-Dec-17 17:14 32.831578 -117.234199 281 4026ft 209kts
12-Dec-17 17:15 32.838213 -117.285892 281 6602ft 221kts
12-Dec-17 17:16 32.845030 -117.336163 292 9286ft 232kts
12-Dec-17 17:17 32.881944 -117.361704 10 9978ft 264kts
12-Dec-17 17:18 32.921250 -117.332306 39 9985ft 288kts
12-Dec-17 17:19 32.965246 -117.290541 39 9986ft 298kts
12-Dec-17 17:20 33.016328 -117.247341 17 9981ft 301kts
12-Dec-17 17:21 33.071250 -117.237260 11 9986ft 302kts
12-Dec-17 17:22 33.127417 -117.226409 10 9988ft 302kts
12-Dec-17 17:23 33.184876 -117.215690 10 9985ft 303kts
12-Dec-17 17:24 33.242657 -117.204961 10 9983ft 303kts
12-Dec-17 17:25 33.298856 -117.194529 10 9981ft 303kts
12-Dec-17 17:26 33.359625 -117.183216 10 9977ft 303kts
12-Dec-17 17:27 33.415904 -117.172722 10 9972ft 303kts
12-Dec-17 17:28 33.468012 -117.163118 7 9972ft 303kts
12-Dec-17 17:29 33.520164 -117.165130 358 9988ft 304kts
12-Dec-17 17:30 33.576244 -117.169369 358 10003ft 304kts
12-Dec-17 17:31 33.629620 -117.173590 358 10013ft 303kts
12-Dec-17 17:32 33.682379 -117.178488 357 10016ft 303kts
12-Dec-17 17:33 33.732326 -117.182396 359 10015ft 270kts
12-Dec-17 17:34 33.773519 -117.186828 343 9392ft 227kts
12-Dec-17 17:35 33.809175 -117.207208 335 8528ft 224kts
12-Dec-17 17:36 33.845714 -117.219141 351 7801ft 218kts
12-Dec-17 17:37 33.882976 -117.227391 351 7077ft 216kts
12-Dec-17 17:39 33.920990 -117.235633 351 6452ft 213kts
12-Dec-17 17:40 33.957541 -117.243402 351 5922ft 205kts
12-Dec-17 17:41 33.993769 -117.250741 351 5443ft 199kts
12-Dec-17 17:42 34.030934 -117.257818 351 4950ft 201kts
12-Dec-17 17:43 34.056086 -117.286113 275 4455ft 208kts
12-Dec-17 17:44 34.053473 -117.332033 270 4201ft 199kts
12-Dec-17 17:45 34.053375 -117.368989 277 4201ft 190kts
12-Dec-17 17:46 34.054693 -117.410523 272 3742ft 182kts
12-Dec-17 17:47 34.054833 -117.449591 271 3117ft 148kts
12-Dec-17 17:48 34.054858 -117.479860 271 2650ft 123kts
12-Dec-17 17:49 34.054922 -117.506555 271 2213ft 121kts
12-Dec-17 17:50 34.054940 -117.532470 270 1809ft 109kts
12-Dec-17 17:51 34.054957 -117.557154 270 1405ft 109kts
12-Dec-17 17:52 34.054942 -117.580621 270 1054ft 108kts
12-Dec-17 17:53 34.054905 -117.597873 254 950ft 14kts
12-Dec-17 17:54 34.053963 -117.598060 214 950ft 0kts
12-Dec-17 17:55 34.053847 -117.598301 264 950ft 9kts
12-Dec-17 17:56 34.053838 -117.599724 270 950ft 22kts

Navigation Log

Ident Type
1. KMYF Airport
2. TANNR Fix
3. HDF Navaid
4. PETIS Fix
5. KONT Airport